Terminal Aerodrome Forecast
Issued by NWS

Home | Current Version | Previous Version | Text Only | Print | Product List | Glossary On
Versions: 1 2 3 4 5 6 7 8 9 10 11 12 13 14 15 16 17 18 19 20 21
094
FTUS43 KDTX 191120
TAFMBS
TAF
KMBS 191120Z 1912/2012 29013KT P6SM BKN030
     FM191400 28014G23KT P6SM BKN035
      TEMPO 1918/1922 5SM -SHSN BR BKN035
     FM200000 26010KT P6SM BKN040
     FM200600 23008KT P6SM SCT060 SCT080 BKN100=

USA.gov is the U.S. government's official web portal to all federal, state and local government web resources and services.